KHAO

Butler Co Regional-Hogan Field Airport

Hamilton, Ohio, USA
METAR KHAO 151553Z AUTO 02013G18KT 1 1/4SM RA BR FEW015 OVC023 08/07 A2997 RMK AO2 RAB00 SLP152 P0005 T00830072
Observed Flight Rules
Dec-15 @ 15:53 UTC (12 minutes ago) Instrument Flight Rules
Wind Visibility Clouds Conditions
20° at 13 knots
 Gusting to 18 knots
1 1/4 miles
  • Few at 1,500' AGL
  • Overcast at 2,300' AGL
  • Rain
  • Mist
Temperatures Readings Precipitation
Current 8°C / 46°F
Dewpoint 7°C / 45°F
Humidity 93%
Altimeter 29.97" Hg
Pressure 1015.2 hPa
Elevation 188
Current Rain 0.05
METAR KHAO 151553Z AUTO 02013G18KT 1 1/4SM RA BR FEW015 OVC023 08/07 A2997 RMK AO2 RAB00 SLP152 P0005 T00830072
Observed Flight Rules
Dec-15 @ 15:53 UTC
(12 minutes ago)
IFR
Wind Visibility
20° at 13 knots
 Gusting to 18 knots
1 1/4 miles
Clouds
  • Few at 1,500' AGL
  • Overcast at 2,300' AGL
Conditions
  • Rain
  • Mist
Temperature Dewpoint
8°C / 46°F 7°C / 45°F
Humidity Altimeter Pressure
93% 29.97" Hg 1015.2 hPa
Current Rain
0.05